Time;durP1;ratioP1;P1;durP2;ratioP2;P2;SDS_P1;SDS_P2;PMS_P1;PMS_P2;Temp;Humidity;BMP_temperature;BMP_pressure;BME280_temperature;BME280_humidity;BME280_pressure;Samples;Min_cycle;Max_cycle;Signal;HPM_P1;HPM_P2
2024/02/04 00:00:38;;;;;;;4.73;2.90;;;4.60;99.90;;;;;;2062567;28;20230;-64
2024/02/04 00:01:40;;;;;;;3.57;2.53;;;4.70;99.90;;;;;;2071164;28;20226;-65
2024/02/04 00:02:40;;;;;;;3.15;2.58;;;4.70;99.90;;;;;;2072242;28;20704;-65
2024/02/04 00:03:41;;;;;;;3.37;2.60;;;4.70;99.90;;;;;;2062246;28;20300;-64
2024/02/04 00:04:42;;;;;;;3.77;2.90;;;4.60;99.90;;;;;;2062095;28;20272;-64
2024/02/04 00:05:42;;;;;;;2.67;2.30;;;4.60;99.90;;;;;;2063461;28;20237;-65
2024/02/04 00:06:43;;;;;;;6.20;2.53;;;4.50;99.90;;;;;;2054769;28;20242;-65
2024/02/04 00:07:44;;;;;;;3.43;2.53;;;4.50;99.90;;;;;;2062648;28;20313;-64
2024/02/04 00:08:45;;;;;;;3.33;2.42;;;4.50;99.90;;;;;;2071143;28;20238;-64
2024/02/04 00:09:46;;;;;;;4.50;2.10;;;4.50;99.90;;;;;;2071542;28;20249;-65
2024/02/04 00:10:46;;;;;;;2.37;2.00;;;4.50;99.90;;;;;;2062896;28;20804;-65
2024/02/04 00:11:47;;;;;;;2.30;2.10;;;4.50;99.90;;;;;;2047793;28;20250;-64
2024/02/04 00:12:48;;;;;;;2.43;2.13;;;4.50;99.90;;;;;;2046825;28;20290;-63
2024/02/04 00:13:48;;;;;;;2.97;2.17;;;4.50;99.90;;;;;;2046362;28;20326;-64
2024/02/04 00:14:49;;;;;;;3.80;2.37;;;4.50;99.90;;;;;;2060979;28;20230;-63
2024/02/04 00:15:52;;;;;;;3.40;2.40;;;4.50;99.90;;;;;;2063974;28;20293;-65
2024/02/04 00:16:53;;;;;;;6.15;2.58;;;4.60;99.90;;;;;;2065096;28;20472;-64
2024/02/04 00:17:53;;;;;;;3.30;2.40;;;4.60;99.90;;;;;;2071984;28;20225;-65
2024/02/04 00:18:54;;;;;;;3.20;2.70;;;4.60;99.90;;;;;;2070953;28;20271;-63
2024/02/04 00:19:56;;;;;;;3.10;2.20;;;4.60;99.90;;;;;;2062572;28;20222;-65
2024/02/04 00:20:57;;;;;;;3.20;2.58;;;4.60;99.90;;;;;;2054663;28;20222;-64
2024/02/04 00:21:57;;;;;;;3.33;2.33;;;4.60;99.90;;;;;;2063475;28;20293;-64
2024/02/04 00:22:58;;;;;;;6.77;3.50;;;4.60;99.90;;;;;;2071435;28;20221;-64
2024/02/04 00:23:59;;;;;;;3.30;2.80;;;4.50;99.90;;;;;;2062404;28;20265;-64
2024/02/04 00:25:04;;;;;;;2.97;2.60;;;4.50;99.90;;;;;;2063479;28;20296;-64
2024/02/04 00:26:05;;;;;;;3.67;2.50;;;4.50;99.90;;;;;;2061936;28;20281;-64
2024/02/04 00:27:06;;;;;;;3.93;2.57;;;4.50;99.90;;;;;;2062426;28;20921;-63
2024/02/04 00:28:07;;;;;;;5.43;2.90;;;4.50;99.90;;;;;;2062607;28;20189;-64
2024/02/04 00:29:07;;;;;;;5.97;2.50;;;4.50;99.90;;;;;;2071401;28;20205;-65
2024/02/04 00:30:08;;;;;;;4.53;2.57;;;4.50;99.90;;;;;;2062211;28;20214;-64
2024/02/04 00:31:09;;;;;;;3.40;2.35;;;4.50;99.90;;;;;;2062666;28;20194;-65
2024/02/04 00:32:10;;;;;;;2.63;1.97;;;4.50;99.90;;;;;;2071373;28;20247;-65
2024/02/04 00:33:11;;;;;;;3.63;2.35;;;4.50;99.90;;;;;;2071877;28;20690;-65
2024/02/04 00:34:12;;;;;;;3.17;2.40;;;4.50;99.90;;;;;;2071232;28;20177;-65
2024/02/04 00:35:12;;;;;;;2.87;2.17;;;4.60;99.90;;;;;;2072270;28;20190;-65
2024/02/04 00:36:13;;;;;;;3.37;2.23;;;4.70;99.90;;;;;;2070774;28;20224;-65
2024/02/04 00:37:13;;;;;;;2.80;2.17;;;4.60;99.90;;;;;;2063250;28;20634;-65
2024/02/04 00:38:14;;;;;;;3.70;2.23;;;4.60;99.90;;;;;;2062730;28;20190;-64
2024/02/04 00:39:15;;;;;;;2.70;2.10;;;4.50;99.90;;;;;;2062593;28;20217;-66
2024/02/04 00:40:16;;;;;;;6.80;2.90;;;4.50;99.90;;;;;;2054738;28;20194;-67
2024/02/04 00:41:16;;;;;;;4.43;2.93;;;4.50;99.90;;;;;;2054600;28;20194;-64
2024/02/04 00:42:17;;;;;;;5.13;3.00;;;4.50;99.90;;;;;;2054130;28;20670;-65
2024/02/04 00:43:18;;;;;;;3.73;2.50;;;4.50;99.90;;;;;;2054560;28;20189;-64
2024/02/04 00:44:18;;;;;;;3.40;2.47;;;4.40;99.90;;;;;;2054973;28;20274;-63
2024/02/04 00:45:19;;;;;;;3.67;2.70;;;4.40;99.90;;;;;;2054560;28;20183;-64
2024/02/04 00:46:20;;;;;;;4.13;2.60;;;4.40;99.90;;;;;;2054568;28;20206;-64
2024/02/04 00:47:21;;;;;;;2.90;2.20;;;4.40;99.90;;;;;;2062692;28;20234;-63
2024/02/04 00:48:21;;;;;;;3.53;2.60;;;4.40;99.90;;;;;;2071314;28;20257;-64
2024/02/04 00:49:22;;;;;;;3.73;2.87;;;4.30;99.90;;;;;;2072040;28;20300;-65
2024/02/04 00:50:23;;;;;;;3.93;2.83;;;4.30;99.90;;;;;;2067510;28;20736;-64
2024/02/04 00:51:23;;;;;;;3.57;2.47;;;4.40;99.90;;;;;;2062394;28;20230;-64
2024/02/04 00:52:24;;;;;;;5.07;2.80;;;4.30;99.90;;;;;;2046457;28;20255;-65
2024/02/04 00:53:27;;;;;;;3.80;2.80;;;4.30;99.90;;;;;;2055068;28;20266;-63
2024/02/04 00:54:27;;;;;;;3.15;2.30;;;4.30;99.90;;;;;;2070972;28;20568;-64
2024/02/04 00:55:28;;;;;;;3.23;2.23;;;4.30;99.90;;;;;;2070636;28;20233;-67
2024/02/04 00:56:29;;;;;;;4.40;2.55;;;4.30;99.90;;;;;;2062642;28;20247;-64
2024/02/04 00:57:30;;;;;;;3.70;2.67;;;4.30;99.90;;;;;;2054173;28;20223;-64
2024/02/04 00:58:31;;;;;;;5.10;3.10;;;4.30;99.90;;;;;;2054530;28;20494;-64
2024/02/04 00:59:31;;;;;;;5.33;2.97;;;4.30;99.90;;;;;;2062379;28;20309;-64
2024/02/04 01:00:32;;;;;;;3.90;2.33;;;4.30;99.90;;;;;;2070946;28;20271;-64
2024/02/04 01:01:33;;;;;;;4.10;2.77;;;4.30;99.90;;;;;;2071156;28;20236;-65
2024/02/04 01:02:34;;;;;;;3.00;2.43;;;4.30;99.90;;;;;;2071209;28;20300;-64
2024/02/04 01:03:34;;;;;;;4.28;2.90;;;4.40;99.90;;;;;;2062829;28;20221;-65
2024/02/04 01:04:35;;;;;;;3.90;2.50;;;4.20;99.90;;;;;;2058533;28;20260;-64
2024/02/04 01:05:36;;;;;;;4.47;3.27;;;4.20;99.90;;;;;;2061858;28;20226;-64
2024/02/04 01:06:37;;;;;;;4.60;3.13;;;4.30;99.90;;;;;;2052484;28;20226;-64
2024/02/04 01:07:38;;;;;;;3.42;2.50;;;4.20;99.90;;;;;;2053391;28;20254;-64
2024/02/04 01:08:38;;;;;;;3.47;3.00;;;4.20;99.90;;;;;;2061574;28;20230;-65
2024/02/04 01:09:39;;;;;;;3.17;2.30;;;4.20;99.90;;;;;;2061808;28;20652;-63
2024/02/04 01:10:40;;;;;;;4.67;2.87;;;4.20;99.90;;;;;;2061936;28;20245;-64
2024/02/04 01:11:40;;;;;;;4.70;2.47;;;4.20;99.90;;;;;;2054317;28;20283;-62
2024/02/04 01:12:41;;;;;;;3.30;2.50;;;4.20;99.90;;;;;;2053564;28;20226;-63
2024/02/04 01:13:42;;;;;;;3.13;2.60;;;4.20;99.90;;;;;;2062230;28;20226;-64
2024/02/04 01:14:43;;;;;;;3.03;2.47;;;4.10;99.90;;;;;;2059784;28;20230;-65
2024/02/04 01:15:43;;;;;;;3.57;2.70;;;4.20;99.90;;;;;;2070404;28;20241;-63
2024/02/04 01:16:44;;;;;;;3.80;2.50;;;4.10;99.90;;;;;;2070887;28;20229;-64
2024/02/04 01:17:45;;;;;;;4.30;2.87;;;4.10;99.90;;;;;;2061675;28;20633;-65
2024/02/04 01:18:45;;;;;;;4.07;3.03;;;4.10;99.90;;;;;;2053766;28;20301;-66
2024/02/04 01:19:46;;;;;;;3.57;2.27;;;4.10;99.90;;;;;;2053975;28;20231;-64
2024/02/04 01:20:47;;;;;;;4.03;2.60;;;4.20;99.90;;;;;;2062425;28;20218;-65
2024/02/04 01:21:48;;;;;;;3.13;2.72;;;4.20;99.90;;;;;;2069870;28;20222;-64
2024/02/04 01:22:48;;;;;;;3.77;2.90;;;4.20;99.90;;;;;;2062782;28;20222;-65
2024/02/04 01:23:49;;;;;;;5.67;3.53;;;4.10;99.90;;;;;;2045490;28;20719;-65
2024/02/04 01:24:50;;;;;;;5.20;3.23;;;4.10;99.90;;;;;;2045848;28;20219;-65
2024/02/04 01:25:50;;;;;;;5.80;2.23;;;4.00;99.90;;;;;;2062002;28;20603;-65
2024/02/04 01:26:51;;;;;;;3.50;2.43;;;4.00;99.90;;;;;;2070705;28;20221;-65
2024/02/04 01:27:52;;;;;;;3.60;2.30;;;4.00;99.90;;;;;;2071747;28;20225;-65
2024/02/04 01:28:52;;;;;;;3.10;2.73;;;4.00;99.90;;;;;;2061988;28;20241;-65
2024/02/04 01:29:53;;;;;;;3.07;2.40;;;4.00;99.90;;;;;;2062076;28;20749;-65
2024/02/04 01:30:54;;;;;;;4.40;2.50;;;4.10;99.90;;;;;;2070695;28;20549;-64
2024/02/04 01:31:54;;;;;;;3.30;2.67;;;4.10;99.90;;;;;;2070860;28;20224;-65
2024/02/04 01:32:55;;;;;;;3.67;2.57;;;4.10;99.90;;;;;;2071568;28;20217;-65
2024/02/04 01:33:56;;;;;;;5.17;3.00;;;4.20;99.90;;;;;;2070709;28;20225;-64
2024/02/04 01:34:57;;;;;;;5.15;3.33;;;4.20;99.90;;;;;;2070600;28;20222;-65
2024/02/04 01:35:58;;;;;;;4.90;3.30;;;4.10;99.90;;;;;;2070694;28;20311;-63
2024/02/04 01:36:59;;;;;;;4.28;2.53;;;4.10;99.90;;;;;;2070707;28;20225;-65
2024/02/04 01:37:59;;;;;;;2.40;2.17;;;4.10;99.90;;;;;;2070810;28;20734;-65
2024/02/04 01:39:00;;;;;;;2.73;2.23;;;4.00;99.90;;;;;;2061458;28;20662;-64
2024/02/04 01:40:01;;;;;;;2.50;2.27;;;4.10;99.90;;;;;;2057829;28;20229;-65
2024/02/04 01:41:01;;;;;;;2.53;2.00;;;4.10;99.90;;;;;;2057866;28;20221;-65
2024/02/04 01:42:02;;;;;;;3.00;1.90;;;4.10;99.90;;;;;;2053661;28;20767;-65
2024/02/04 01:43:03;;;;;;;3.50;2.50;;;4.10;99.90;;;;;;2062611;28;20187;-65
2024/02/04 01:44:04;;;;;;;6.20;2.40;;;4.20;99.90;;;;;;2053713;28;20664;-64
2024/02/04 01:45:05;;;;;;;2.33;1.90;;;4.20;99.90;;;;;;2045714;28;20639;-65
2024/02/04 01:46:06;;;;;;;2.35;2.00;;;4.10;99.90;;;;;;2054056;28;20210;-64
2024/02/04 01:47:07;;;;;;;2.53;2.13;;;4.20;99.90;;;;;;2054029;28;20179;-65
2024/02/04 01:48:08;;;;;;;3.00;2.30;;;4.10;99.90;;;;;;2054120;28;20218;-64
2024/02/04 01:49:09;;;;;;;2.80;2.30;;;4.10;99.90;;;;;;2062280;28;20435;-65
2024/02/04 01:50:10;;;;;;;3.67;2.63;;;4.00;99.90;;;;;;2061761;28;20178;-65
2024/02/04 01:51:14;;;;;;;4.97;2.38;;;4.00;99.90;;;;;;2044436;28;20209;-65
2024/02/04 01:52:15;;;;;;;3.85;2.85;;;4.00;99.90;;;;;;2046995;28;20206;-64
2024/02/04 01:53:17;;;;;;;3.35;2.13;;;4.00;99.90;;;;;;2054018;28;20266;-65
2024/02/04 01:54:18;;;;;;;3.58;2.30;;;3.90;99.90;;;;;;2050390;28;20179;-64
2024/02/04 01:55:19;;;;;;;3.13;1.85;;;3.90;99.90;;;;;;2054042;28;20195;-65
2024/02/04 01:56:21;;;;;;;4.73;2.17;;;3.90;99.90;;;;;;2053471;28;20726;-65
2024/02/04 01:57:21;;;;;;;2.55;2.22;;;3.90;99.90;;;;;;2054885;28;20239;-65
2024/02/04 01:58:23;;;;;;;2.30;1.80;;;3.90;99.90;;;;;;2054007;28;20242;-64
2024/02/04 01:59:30;;;;;;;2.83;2.30;;;3.90;99.90;;;;;;2061953;28;20667;-64
2024/02/04 02:00:31;;;;;;;4.55;2.33;;;3.90;99.90;;;;;;2062585;28;20221;-65
2024/02/04 02:01:33;;;;;;;3.35;2.53;;;3.90;99.90;;;;;;2059912;28;20892;-64
2024/02/04 02:02:38;;;;;;;2.55;2.20;;;3.80;99.90;;;;;;2053206;28;20288;-64
2024/02/04 02:03:39;;;;;;;4.28;2.15;;;3.80;99.90;;;;;;2054044;28;20237;-65
2024/02/04 02:04:40;;;;;;;2.95;2.05;;;3.80;99.90;;;;;;2060904;28;20246;-64
2024/02/04 02:05:41;;;;;;;2.13;1.90;;;3.80;99.90;;;;;;2061899;28;20226;-64
2024/02/04 02:06:43;;;;;;;3.33;2.40;;;3.70;99.90;;;;;;2057348;28;20227;-65
2024/02/04 02:07:45;;;;;;;2.50;2.13;;;3.70;99.90;;;;;;2064718;28;20240;-65
2024/02/04 02:08:47;;;;;;;2.92;1.95;;;3.70;99.90;;;;;;2069453;28;20226;-64
2024/02/04 02:09:48;;;;;;;2.80;2.20;;;3.80;99.90;;;;;;2061009;28;20229;-65
2024/02/04 02:10:50;;;;;;;3.80;2.60;;;3.80;99.90;;;;;;2060928;28;20253;-65
2024/02/04 02:12:07;;;;;;;2.28;2.08;;;3.70;99.90;;;;;;2060224;28;20229;-65
2024/02/04 02:13:16;;;;;;;3.25;2.15;;;3.80;99.90;;;;;;2052239;28;20225;-63
2024/02/04 02:14:23;;;;;;;2.72;2.13;;;3.80;99.90;;;;;;2058937;28;20182;-64
2024/02/04 02:15:31;;;;;;;3.65;2.90;;;3.90;99.90;;;;;;2061366;28;20325;-64
2024/02/04 02:16:33;;;;;;;3.45;2.70;;;3.80;99.90;;;;;;2053904;28;20633;-65
2024/02/04 02:17:49;;;;;;;4.28;2.50;;;3.80;99.90;;;;;;2061201;28;20230;-65
2024/02/04 02:18:55;;;;;;;6.50;3.03;;;3.80;99.90;;;;;;2060921;28;20600;-65
2024/02/04 02:20:15;;;;;;;4.70;2.80;;;3.70;99.90;;;;;;2051177;28;20234;-65
2024/02/04 02:21:48;;;;;;;4.80;2.70;;;3.70;99.90;;;;;;2054625;28;20305;-64
2024/02/04 02:23:01;;;;;;;3.72;2.90;;;3.70;99.90;;;;;;2063660;28;20695;-64
2024/02/04 02:24:31;;;;;;;3.17;2.55;;;3.70;99.90;;;;;;2056269;28;20279;-64
2024/02/04 02:25:32;;;;;;;2.85;2.33;;;3.70;99.90;;;;;;2050785;28;20648;-65
2024/02/04 02:26:34;;;;;;;3.40;2.53;;;3.60;99.90;;;;;;2058172;28;20229;-65
2024/02/04 02:27:34;;;;;;;3.53;2.78;;;3.60;99.90;;;;;;2059802;28;20225;-63
2024/02/04 02:28:35;;;;;;;2.93;2.63;;;3.60;99.90;;;;;;2068511;28;20251;-65
2024/02/04 02:29:36;;;;;;;4.00;2.97;;;3.60;99.90;;;;;;2069647;28;20304;-64
2024/02/04 02:30:36;;;;;;;3.43;2.80;;;3.60;99.90;;;;;;2068906;28;20305;-64
2024/02/04 02:31:39;;;;;;;3.43;2.53;;;3.60;99.90;;;;;;2060763;28;20773;-65
2024/02/04 02:32:40;;;;;;;3.67;2.53;;;3.60;99.90;;;;;;2048361;28;20760;-65
2024/02/04 02:33:40;;;;;;;3.00;2.40;;;3.50;99.90;;;;;;2052395;28;20218;-64
2024/02/04 02:34:41;;;;;;;3.73;2.53;;;3.50;99.90;;;;;;2051846;28;20609;-64
2024/02/04 02:35:46;;;;;;;3.63;2.83;;;3.50;99.90;;;;;;2051345;28;20301;-65
2024/02/04 02:37:03;;;;;;;3.45;2.67;;;3.60;99.90;;;;;;2051514;28;20584;-64
2024/02/04 02:38:28;;;;;;;2.60;2.28;;;3.60;99.90;;;;;;2059526;28;20214;-64
2024/02/04 02:39:35;;;;;;;2.67;1.92;;;3.60;99.90;;;;;;2059852;28;20323;-64
2024/02/04 02:40:52;;;;;;;2.72;2.13;;;3.50;99.90;;;;;;2046021;28;20340;-65
2024/02/04 02:41:57;;;;;;;4.53;2.40;;;3.60;99.90;;;;;;2048719;28;20321;-65
2024/02/04 02:43:02;;;;;;;2.72;2.17;;;3.60;99.90;;;;;;2056265;28;20245;-65
2024/02/04 02:44:05;;;;;;;3.33;2.28;;;3.70;99.90;;;;;;2055910;28;20549;-65
2024/02/04 02:45:07;;;;;;;2.05;1.85;;;3.80;99.90;;;;;;2052813;28;20755;-64
2024/02/04 02:46:08;;;;;;;3.58;2.50;;;3.90;99.90;;;;;;2054603;28;20301;-64
2024/02/04 02:47:10;;;;;;;2.63;2.03;;;3.90;99.90;;;;;;2061135;28;20193;-65
2024/02/04 02:48:11;;;;;;;2.97;1.90;;;3.80;99.90;;;;;;2061572;28;20194;-65
2024/02/04 02:49:13;;;;;;;2.55;1.98;;;3.90;99.90;;;;;;2068079;28;20185;-65
2024/02/04 02:50:14;;;;;;;2.03;1.63;;;3.90;99.90;;;;;;2060365;28;20194;-65
2024/02/04 02:51:14;;;;;;;1.83;1.67;;;3.80;99.90;;;;;;2052587;28;20191;-65
2024/02/04 02:52:15;;;;;;;2.47;1.70;;;3.90;99.90;;;;;;2052847;28;20190;-65
2024/02/04 02:53:18;;;;;;;2.63;1.87;;;3.90;99.90;;;;;;2059219;28;20197;-66
2024/02/04 02:54:19;;;;;;;2.53;1.90;;;3.80;99.90;;;;;;2068528;28;20180;-64
2024/02/04 02:55:20;;;;;;;2.63;1.90;;;3.90;99.90;;;;;;2061984;28;20672;-65
2024/02/04 02:56:21;;;;;;;1.50;1.30;;;3.80;99.90;;;;;;2060555;28;20233;-64
2024/02/04 02:57:21;;;;;;;1.57;1.40;;;3.80;99.90;;;;;;2071358;28;20260;-65
2024/02/04 02:58:22;;;;;;;2.27;1.70;;;3.70;99.90;;;;;;2063704;28;20252;-65
2024/02/04 02:59:23;;;;;;;2.10;1.50;;;3.80;99.90;;;;;;2059151;28;20756;-64
2024/02/04 03:00:23;;;;;;;1.83;1.50;;;3.80;99.90;;;;;;2061438;28;20304;-64
2024/02/04 03:01:24;;;;;;;1.93;1.73;;;3.70;99.90;;;;;;2060162;28;20268;-64
2024/02/04 03:02:25;;;;;;;3.40;1.87;;;3.70;99.90;;;;;;2060551;28;20237;-64
2024/02/04 03:03:26;;;;;;;1.90;1.63;;;3.70;99.90;;;;;;2053011;28;20293;-64
2024/02/04 03:04:26;;;;;;;2.83;1.87;;;3.70;99.90;;;;;;2062038;28;20336;-65
2024/02/04 03:05:27;;;;;;;2.83;2.07;;;3.70;99.90;;;;;;2062533;28;20317;-64
2024/02/04 03:06:28;;;;;;;2.33;1.73;;;3.70;99.90;;;;;;2060467;28;20237;-65
2024/02/04 03:07:28;;;;;;;2.43;1.80;;;3.60;99.90;;;;;;2060521;28;20236;-65
2024/02/04 03:08:29;;;;;;;2.50;2.10;;;3.60;99.90;;;;;;2060534;28;20233;-64
2024/02/04 03:09:30;;;;;;;4.20;1.93;;;3.60;99.90;;;;;;2069162;28;20225;-65
2024/02/04 03:10:30;;;;;;;2.33;1.77;;;3.50;99.90;;;;;;2069092;28;20224;-65
2024/02/04 03:11:31;;;;;;;2.47;1.73;;;3.50;99.90;;;;;;2070483;28;20229;-64
2024/02/04 03:12:32;;;;;;;2.87;2.00;;;3.50;99.90;;;;;;2069127;28;20232;-65
2024/02/04 03:13:32;;;;;;;2.60;1.90;;;3.50;99.90;;;;;;2069814;28;20284;-66
2024/02/04 03:14:33;;;;;;;2.53;2.13;;;3.40;99.90;;;;;;2060732;28;20311;-65
2024/02/04 03:15:34;;;;;;;1.80;1.40;;;3.50;99.90;;;;;;2060786;28;20229;-65
2024/02/04 03:16:34;;;;;;;2.30;1.73;;;3.40;99.90;;;;;;2069317;28;20243;-65
2024/02/04 03:17:35;;;;;;;1.93;1.63;;;3.50;99.90;;;;;;2068438;28;20220;-65
2024/02/04 03:18:38;;;;;;;1.83;1.43;;;3.40;99.90;;;;;;2066549;28;20236;-65
2024/02/04 03:19:39;;;;;;;2.53;1.48;;;3.30;99.90;;;;;;2069633;28;20728;-65
2024/02/04 03:20:40;;;;;;;2.20;1.60;;;3.30;99.90;;;;;;2068777;28;20232;-64
2024/02/04 03:21:40;;;;;;;1.77;1.53;;;3.20;99.90;;;;;;2068303;28;20232;-65
2024/02/04 03:22:41;;;;;;;2.43;1.50;;;3.20;99.90;;;;;;2061492;28;20248;-65
2024/02/04 03:23:43;;;;;;;3.23;1.90;;;3.20;99.90;;;;;;2059601;28;20243;-65
2024/02/04 03:24:44;;;;;;;1.45;1.25;;;3.20;99.90;;;;;;2057647;28;20227;-65
2024/02/04 03:25:44;;;;;;;1.50;1.30;;;3.20;99.90;;;;;;2061451;28;20233;-65
2024/02/04 03:26:45;;;;;;;1.70;1.40;;;3.20;99.90;;;;;;2066612;28;20224;-64
2024/02/04 03:27:45;;;;;;;1.93;1.30;;;3.20;99.90;;;;;;2069448;28;20232;-65
2024/02/04 03:28:46;;;;;;;2.70;1.27;;;3.20;99.90;;;;;;2060912;28;20608;-65
2024/02/04 03:29:47;;;;;;;1.70;1.30;;;3.20;99.90;;;;;;2052946;28;20233;-65
2024/02/04 03:30:47;;;;;;;1.60;1.30;;;3.20;99.90;;;;;;2053877;28;20236;-65
2024/02/04 03:31:49;;;;;;;2.83;1.43;;;3.20;99.90;;;;;;2060856;28;20218;-64
2024/02/04 03:32:50;;;;;;;3.10;1.35;;;3.20;99.90;;;;;;2060740;28;20225;-64
2024/02/04 03:33:51;;;;;;;1.77;1.20;;;3.30;99.90;;;;;;2061576;28;20232;-65
2024/02/04 03:34:52;;;;;;;2.60;1.50;;;3.30;99.90;;;;;;2069922;28;20693;-65
2024/02/04 03:35:52;;;;;;;1.50;1.10;;;3.30;99.90;;;;;;2059044;28;20240;-64
2024/02/04 03:36:53;;;;;;;1.07;0.97;;;3.30;99.90;;;;;;2061129;28;20261;-65
2024/02/04 03:37:54;;;;;;;2.50;1.40;;;3.30;99.90;;;;;;2069202;28;20229;-64
2024/02/04 03:38:54;;;;;;;1.40;1.30;;;3.20;99.90;;;;;;2061558;28;20233;-65
2024/02/04 03:39:55;;;;;;;1.20;1.10;;;3.30;99.90;;;;;;2060407;28;20229;-65
2024/02/04 03:40:56;;;;;;;1.37;1.10;;;3.30;99.90;;;;;;2070298;28;20244;-65
2024/02/04 03:41:57;;;;;;;4.87;1.57;;;3.40;99.90;;;;;;2067404;28;20239;-65
2024/02/04 03:42:57;;;;;;;1.83;1.30;;;3.30;99.90;;;;;;2069483;28;20227;-65
2024/02/04 03:43:58;;;;;;;1.70;1.13;;;3.30;99.90;;;;;;2069294;28;20233;-64
2024/02/04 03:45:01;;;;;;;0.90;0.80;;;3.40;99.90;;;;;;2070013;28;20276;-65
2024/02/04 03:46:02;;;;;;;1.30;1.00;;;3.30;99.90;;;;;;2059432;28;20942;-62
2024/02/04 03:47:03;;;;;;;1.27;1.00;;;3.30;99.90;;;;;;2060481;28;20185;-65
2024/02/04 03:48:04;;;;;;;1.58;1.48;;;3.30;99.90;;;;;;2062077;28;20678;-63
2024/02/04 03:49:09;;;;;;;1.30;1.05;;;3.40;99.90;;;;;;2062928;28;20190;-64
2024/02/04 03:50:09;;;;;;;2.17;1.00;;;3.30;99.90;;;;;;2063140;28;20560;-64
2024/02/04 03:51:18;;;;;;;1.60;1.10;;;3.40;99.90;;;;;;2063287;28;20242;-65
2024/02/04 03:52:18;;;;;;;2.60;1.30;;;3.50;99.90;;;;;;2051580;28;20199;-65
2024/02/04 03:53:21;;;;;;;1.23;1.03;;;3.50;99.90;;;;;;2057516;28;20559;-65
2024/02/04 03:54:21;;;;;;;1.75;1.35;;;3.40;99.90;;;;;;2067644;28;20229;-65
2024/02/04 03:55:22;;;;;;;3.87;1.20;;;3.30;99.90;;;;;;2058165;28;20231;-63
2024/02/04 03:56:22;;;;;;;1.17;0.97;;;3.40;99.90;;;;;;2059270;28;21029;-65
2024/02/04 03:57:23;;;;;;;1.30;1.10;;;3.40;99.90;;;;;;2058370;28;20239;-64
2024/02/04 03:58:29;;;;;;;2.00;1.20;;;3.40;99.90;;;;;;2062172;28;20710;-64
2024/02/04 03:59:30;;;;;;;1.95;1.20;;;3.50;99.90;;;;;;2071812;28;20915;-65
2024/02/04 04:00:30;;;;;;;1.70;0.90;;;3.50;99.90;;;;;;2070206;28;20272;-65
2024/02/04 04:01:31;;;;;;;1.30;1.10;;;3.50;99.90;;;;;;2070975;28;20264;-65
2024/02/04 04:02:32;;;;;;;3.57;1.73;;;3.40;99.90;;;;;;2069977;28;20232;-63
2024/02/04 04:03:32;;;;;;;2.23;1.23;;;3.50;99.90;;;;;;2069403;28;20257;-65
2024/02/04 04:04:33;;;;;;;1.20;1.10;;;3.40;99.90;;;;;;2067640;28;20303;-65
2024/02/04 04:05:34;;;;;;;2.10;1.17;;;3.40;99.90;;;;;;2069868;28;20260;-65
2024/02/04 04:06:34;;;;;;;2.57;1.27;;;3.50;99.90;;;;;;2069805;28;20324;-65
2024/02/04 04:07:35;;;;;;;3.90;1.13;;;3.60;99.90;;;;;;2069554;28;20599;-65
2024/02/04 04:08:37;;;;;;;3.47;1.17;;;3.60;99.90;;;;;;2069573;28;20229;-65
2024/02/04 04:09:37;;;;;;;2.13;1.45;;;3.60;99.90;;;;;;2061758;28;20914;-64
2024/02/04 04:10:38;;;;;;;1.43;1.10;;;3.60;99.90;;;;;;2060990;28;20258;-63
2024/02/04 04:11:39;;;;;;;3.13;1.73;;;3.60;99.90;;;;;;2069016;28;20630;-64
2024/02/04 04:12:40;;;;;;;1.83;1.20;;;3.60;99.90;;;;;;2070850;28;20853;-65
2024/02/04 04:13:41;;;;;;;2.47;1.50;;;3.60;99.90;;;;;;2069574;28;20213;-65
2024/02/04 04:14:42;;;;;;;1.77;1.30;;;3.60;99.90;;;;;;2070012;28;21137;-65
2024/02/04 04:15:42;;;;;;;2.27;1.20;;;3.60;99.90;;;;;;2070170;28;20686;-64
2024/02/04 04:16:43;;;;;;;1.80;1.10;;;3.60;99.90;;;;;;2061412;28;20230;-65
2024/02/04 04:17:44;;;;;;;3.87;1.60;;;3.70;99.90;;;;;;2053624;28;20235;-65
2024/02/04 04:18:44;;;;;;;2.33;1.27;;;3.70;99.90;;;;;;2057920;28;20229;-64
2024/02/04 04:19:45;;;;;;;3.37;1.67;;;3.70;99.90;;;;;;2065732;28;20319;-65
2024/02/04 04:20:46;;;;;;;4.03;1.63;;;3.70;99.90;;;;;;2070316;28;20307;-65
2024/02/04 04:21:46;;;;;;;2.83;1.50;;;3.70;99.90;;;;;;2068809;28;20256;-64
2024/02/04 04:22:47;;;;;;;2.07;1.40;;;3.70;99.90;;;;;;2061742;28;20249;-65
2024/02/04 04:23:48;;;;;;;3.37;1.63;;;3.70;99.90;;;;;;2053458;28;20281;-65
2024/02/04 04:24:48;;;;;;;2.83;1.87;;;3.70;99.90;;;;;;2061303;28;20236;-64
2024/02/04 04:25:49;;;;;;;3.37;1.70;;;3.80;99.90;;;;;;2061898;28;20341;-65
2024/02/04 04:26:50;;;;;;;3.30;1.73;;;3.90;99.90;;;;;;2053225;28;20322;-65
2024/02/04 04:27:50;;;;;;;2.67;1.90;;;3.90;99.90;;;;;;2060306;28;20222;-64
2024/02/04 04:28:51;;;;;;;2.63;1.70;;;3.90;99.90;;;;;;2070678;28;20249;-65
2024/02/04 04:29:52;;;;;;;2.07;1.50;;;3.90;99.90;;;;;;2070081;28;20229;-65
2024/02/04 04:30:52;;;;;;;2.87;1.50;;;3.90;99.90;;;;;;2054215;28;20234;-64
2024/02/04 04:31:53;;;;;;;3.77;1.73;;;3.90;99.90;;;;;;2046001;28;20293;-65
2024/02/04 04:32:54;;;;;;;3.83;1.70;;;3.90;99.90;;;;;;2061566;28;20654;-65
2024/02/04 04:33:55;;;;;;;1.52;1.40;;;3.90;99.90;;;;;;2068291;28;20232;-65
2024/02/04 04:34:56;;;;;;;1.70;1.43;;;3.90;99.90;;;;;;2061740;28;20264;-65
2024/02/04 04:35:56;;;;;;;1.60;1.30;;;3.90;99.90;;;;;;2053745;28;20230;-64
2024/02/04 04:36:57;;;;;;;2.77;1.50;;;3.90;99.90;;;;;;2061585;28;20233;-65
2024/02/04 04:37:58;;;;;;;1.73;1.30;;;3.90;99.90;;;;;;2070332;28;20573;-65
2024/02/04 04:38:59;;;;;;;1.77;1.30;;;3.80;99.90;;;;;;2070318;28;20221;-64
2024/02/04 04:39:59;;;;;;;3.33;1.80;;;3.80;99.90;;;;;;2071618;28;20214;-64
2024/02/04 04:41:00;;;;;;;3.30;1.60;;;3.80;99.90;;;;;;2070503;28;20214;-66
2024/02/04 04:42:00;;;;;;;3.43;1.80;;;3.80;99.90;;;;;;2070180;28;20225;-64
2024/02/04 04:43:01;;;;;;;1.93;1.20;;;3.80;99.90;;;;;;2060138;28;20217;-65
2024/02/04 04:44:02;;;;;;;2.13;1.60;;;3.70;99.90;;;;;;2059669;28;20282;-64
2024/02/04 04:45:04;;;;;;;2.97;1.50;;;3.70;99.90;;;;;;2060807;28;20186;-64
2024/02/04 04:46:04;;;;;;;2.65;1.40;;;3.70;99.90;;;;;;2060884;28;20206;-65
2024/02/04 04:47:05;;;;;;;7.07;1.87;;;3.70;99.90;;;;;;2072176;28;20261;-63
2024/02/04 04:48:07;;;;;;;9.07;1.53;;;3.80;99.90;;;;;;2070806;28;20197;-65
2024/02/04 04:49:09;;;;;;;1.90;1.30;;;3.80;99.90;;;;;;2070340;28;20741;-65
2024/02/04 04:50:10;;;;;;;1.73;1.50;;;3.80;99.90;;;;;;2062398;28;20272;-65
2024/02/04 04:51:13;;;;;;;3.03;1.27;;;3.80;99.90;;;;;;2050568;28;20199;-64
2024/02/04 04:52:14;;;;;;;1.27;1.17;;;3.70;99.90;;;;;;2053771;28;20258;-65
2024/02/04 04:53:14;;;;;;;2.33;1.23;;;3.70;99.90;;;;;;2053726;28;20225;-65
2024/02/04 04:54:15;;;;;;;2.07;1.50;;;3.70;99.90;;;;;;2061201;28;20658;-65
2024/02/04 04:55:16;;;;;;;1.57;1.00;;;3.70;99.90;;;;;;2054268;28;20206;-65
2024/02/04 04:56:16;;;;;;;1.83;1.30;;;3.80;99.90;;;;;;2053312;28;20304;-65
2024/02/04 04:57:17;;;;;;;1.67;1.20;;;3.80;99.90;;;;;;2060283;28;20183;-65
2024/02/04 04:58:18;;;;;;;1.60;1.07;;;3.80;99.90;;;;;;2070011;28;20196;-65
2024/02/04 04:59:18;;;;;;;1.83;1.40;;;3.80;99.90;;;;;;2062722;28;20275;-65
2024/02/04 05:00:19;;;;;;;1.73;1.13;;;3.80;99.90;;;;;;2053861;28;20197;-64
2024/02/04 05:01:20;;;;;;;1.27;1.10;;;3.90;99.90;;;;;;2061814;28;20191;-65
2024/02/04 05:02:21;;;;;;;1.67;1.17;;;3.80;99.90;;;;;;2052863;28;20228;-65
2024/02/04 05:03:22;;;;;;;2.10;0.97;;;3.70;99.90;;;;;;2045131;28;20713;-65
2024/02/04 05:04:25;;;;;;;1.10;1.00;;;3.80;99.90;;;;;;2044347;28;20314;-65
2024/02/04 05:05:25;;;;;;;1.02;0.93;;;3.70;99.90;;;;;;2047002;28;20282;-65
2024/02/04 05:06:26;;;;;;;1.87;1.30;;;3.70;99.90;;;;;;2061630;28;20653;-65
2024/02/04 05:07:27;;;;;;;3.50;1.07;;;3.60;99.90;;;;;;2070970;28;20325;-66
2024/02/04 05:08:27;;;;;;;1.30;0.90;;;3.60;99.90;;;;;;2071957;28;20546;-65
2024/02/04 05:09:28;;;;;;;2.70;1.10;;;3.60;99.90;;;;;;2062145;28;20231;-66
2024/02/04 05:10:29;;;;;;;2.37;1.10;;;3.70;99.90;;;;;;2061087;28;20279;-66
2024/02/04 05:11:29;;;;;;;2.37;1.57;;;3.70;99.90;;;;;;2061716;28;20254;-66
2024/02/04 05:12:32;;;;;;;3.43;1.43;;;3.70;99.90;;;;;;2062215;28;20232;-66
2024/02/04 05:13:33;;;;;;;3.25;1.88;;;3.70;99.90;;;;;;2062020;28;20228;-64
2024/02/04 05:14:34;;;;;;;3.87;1.90;;;3.70;99.90;;;;;;2061156;28;20578;-65
2024/02/04 05:15:35;;;;;;;4.00;1.80;;;3.70;99.90;;;;;;2067572;28;20221;-66
2024/02/04 05:16:36;;;;;;;5.30;1.70;;;3.70;99.90;;;;;;2067182;28;20217;-64
2024/02/04 05:17:37;;;;;;;1.33;1.02;;;3.80;99.90;;;;;;2060321;28;20222;-65
2024/02/04 05:18:38;;;;;;;1.73;1.48;;;3.80;99.90;;;;;;2060170;28;20293;-65
2024/02/04 05:19:41;;;;;;;2.47;1.30;;;3.70;99.90;;;;;;2069359;28;20637;-65
2024/02/04 05:20:43;;;;;;;2.25;1.15;;;3.70;99.90;;;;;;2060627;28;20237;-65
2024/02/04 05:21:44;;;;;;;2.85;1.38;;;3.70;99.90;;;;;;2059549;28;20328;-65
2024/02/04 05:22:44;;;;;;;2.50;1.00;;;3.70;99.90;;;;;;2060247;28;20233;-66
2024/02/04 05:23:45;;;;;;;1.30;1.10;;;3.70;99.90;;;;;;2060614;28;20233;-66
2024/02/04 05:24:46;;;;;;;2.53;1.80;;;3.70;99.90;;;;;;2069905;28;20226;-65
2024/02/04 05:25:46;;;;;;;2.43;1.57;;;3.60;99.90;;;;;;2066728;28;20233;-66